Time;durP1;ratioP1;P1;durP2;ratioP2;P2;SDS_P1;SDS_P2;PMS_P1;PMS_P2;Temp;Humidity;BMP_temperature;BMP_pressure;BME280_temperature;BME280_humidity;BME280_pressure;Samples;Min_cycle;Max_cycle;Signal;HPM_P1;HPM_P2
2023/06/18 00:00:12;;;;;;;3.83;3.10;;;;;;;20.99;47.80;101209.00;5055145;28;20036;-80
2023/06/18 00:02:37;;;;;;;3.83;3.10;;;;;;;20.97;46.29;101206.47;5054508;28;20040;-80
2023/06/18 00:05:03;;;;;;;3.53;2.73;;;;;;;20.97;46.94;101216.16;5040563;28;20034;-80
2023/06/18 00:07:28;;;;;;;4.40;3.10;;;;;;;20.93;47.89;101217.28;5034776;28;20017;-80
2023/06/18 00:09:54;;;;;;;3.47;2.77;;;;;;;20.92;47.31;101218.19;5034322;28;20083;-80
2023/06/18 00:12:19;;;;;;;3.50;2.60;;;;;;;20.87;47.39;101220.22;5034938;28;20068;-80
2023/06/18 00:14:44;;;;;;;2.60;2.40;;;;;;;20.83;47.09;101214.25;5034913;28;20041;-80
2023/06/18 00:17:10;;;;;;;2.40;2.20;;;;;;;20.82;47.37;101215.19;5034251;28;20026;-79
2023/06/18 00:19:35;;;;;;;2.30;2.10;;;;;;;20.79;47.76;101210.94;5035088;28;20381;-80
2023/06/18 00:22:01;;;;;;;2.40;2.20;;;;;;;20.76;47.41;101215.53;5034864;28;20287;-80
2023/06/18 00:24:26;;;;;;;2.13;1.93;;;;;;;20.70;47.42;101206.13;5036228;28;20029;-79
2023/06/18 00:26:51;;;;;;;1.90;1.80;;;;;;;20.67;47.13;101206.25;5055036;28;20025;-79
2023/06/18 00:29:16;;;;;;;2.00;1.90;;;;;;;20.63;46.94;101199.44;5054005;28;20377;-79
2023/06/18 00:31:45;;;;;;;1.97;1.87;;;;;;;20.59;48.42;101203.19;5054762;28;20029;-80
2023/06/18 00:34:12;;;;;;;2.50;2.30;;;;;;;20.56;49.66;101198.91;5054423;28;20013;-79
2023/06/18 00:36:38;;;;;;;5.30;3.30;;;;;;;20.50;49.50;101199.22;5054030;28;20029;-80
2023/06/18 00:39:04;;;;;;;3.53;2.80;;;;;;;20.49;48.03;101206.28;5054555;28;20368;-80
2023/06/18 00:41:32;;;;;;;2.97;2.57;;;;;;;20.50;47.86;101196.59;5054476;28;20024;-80
2023/06/18 00:43:58;;;;;;;4.25;3.03;;;;;;;20.48;48.82;101203.72;5053709;28;20473;-80
2023/06/18 00:46:30;;;;;;;4.07;3.30;;;;;;;20.38;51.29;101190.16;5054456;28;20025;-80
2023/06/18 00:48:57;;;;;;;6.43;4.40;;;;;;;20.29;50.03;101180.97;5054038;28;20416;-80
2023/06/18 00:51:26;;;;;;;6.40;3.80;;;;;;;20.35;49.82;101187.69;5053356;28;20362;-79
2023/06/18 00:53:52;;;;;;;5.38;3.90;;;;;;;20.30;50.61;101182.66;5054607;28;20031;-80
2023/06/18 00:56:18;;;;;;;4.40;3.30;;;;;;;20.27;48.87;101182.81;5035880;28;20041;-80
2023/06/18 00:58:47;;;;;;;3.30;3.00;;;;;;;20.27;49.64;101192.47;5033810;28;20044;-79
2023/06/18 01:01:14;;;;;;;3.70;3.00;;;;;;;20.25;49.87;101186.47;5034293;28;20108;-80
2023/06/18 01:03:41;;;;;;;3.47;3.10;;;;;;;20.17;50.70;101179.78;5034268;28;20482;-79
2023/06/18 01:06:09;;;;;;;5.03;3.55;;;;;;;20.15;50.60;101186.91;5032844;28;20438;-80
2023/06/18 01:08:35;;;;;;;6.70;4.10;;;;;;;20.08;51.57;101180.25;5036107;28;20026;-80
2023/06/18 01:11:03;;;;;;;4.55;3.55;;;;;;;19.97;53.56;101172.03;5053966;28;20033;-80
2023/06/18 01:13:36;;;;;;;5.18;3.88;;;;;;;19.98;50.57;101182.50;5053025;28;20036;-80
2023/06/18 01:16:05;;;;;;;5.15;3.60;;;;;;;19.95;50.44;101180.00;5053829;28;20074;-79
2023/06/18 01:18:35;;;;;;;4.72;3.13;;;;;;;19.92;50.53;101180.16;5053082;28;20020;-79
2023/06/18 01:21:05;;;;;;;3.30;3.00;;;;;;;19.89;50.28;101175.91;5053695;28;20040;-79
2023/06/18 01:23:49;;;;;;;2.90;2.60;;;;;;;19.88;50.18;101178.59;5053696;28;20025;-79
2023/06/18 01:26:21;;;;;;;3.10;2.70;;;;;;;19.84;51.08;101183.13;5035480;28;20021;-79
2023/06/18 01:29:00;;;;;;;3.55;2.70;;;;;;;19.76;51.02;101170.31;5033639;28;20025;-79
2023/06/18 01:31:25;;;;;;;3.15;2.60;;;;;;;19.73;50.79;101167.88;5034249;28;20112;-80
2023/06/18 01:33:53;;;;;;;3.13;2.60;;;;;;;19.68;50.96;101175.13;5032547;28;20120;-79
2023/06/18 01:36:34;;;;;;;3.03;2.60;;;;;;;19.65;51.17;101174.44;5033382;28;20087;-79
2023/06/18 01:39:07;;;;;;;2.80;2.50;;;;;;;19.60;50.99;101172.84;5033529;28;20045;-79
2023/06/18 01:41:36;;;;;;;3.85;2.58;;;;;;;19.54;51.25;101172.28;5032624;28;20030;-79
2023/06/18 01:44:06;;;;;;;2.60;2.40;;;;;;;19.51;51.36;101172.47;5033565;28;20087;-79
2023/06/18 01:46:31;;;;;;;2.90;2.60;;;;;;;19.44;51.25;101162.22;5032761;28;20363;-79
2023/06/18 01:48:59;;;;;;;3.23;2.70;;;;;;;19.44;51.59;101164.00;5033216;28;20119;-80
2023/06/18 01:51:27;;;;;;;2.80;2.50;;;;;;;19.35;51.36;101160.03;5032888;28;20034;-80
2023/06/18 01:53:56;;;;;;;2.50;2.30;;;;;;;19.31;52.09;101158.44;5032232;28;20026;-80
2023/06/18 01:56:23;;;;;;;2.80;2.55;;;;;;;19.33;51.37;101164.50;5050974;28;20024;-80
2023/06/18 01:58:51;;;;;;;2.85;2.50;;;;;;;19.23;51.85;101160.59;5053081;28;20025;-80
2023/06/18 02:01:17;;;;;;;2.80;2.50;;;;;;;19.16;52.14;101159.19;5048395;28;20114;-79
2023/06/18 02:03:42;;;;;;;2.90;2.40;;;;;;;19.11;52.16;101154.13;5033818;28;20457;-80
2023/06/18 02:06:08;;;;;;;3.40;2.70;;;;;;;19.07;52.27;101155.19;5033108;28;20026;-80
2023/06/18 02:08:34;;;;;;;2.67;2.40;;;;;;;19.03;52.35;101161.53;5032131;28;20053;-79
2023/06/18 02:11:02;;;;;;;2.88;2.60;;;;;;;19.00;52.39;101151.16;5033033;28;20033;-80
2023/06/18 02:13:28;;;;;;;4.05;2.78;;;;;;;18.92;52.36;101154.94;5032924;28;20076;-79
2023/06/18 02:15:53;;;;;;;3.13;2.70;;;;;;;18.90;52.58;101148.03;5031938;28;20119;-79
2023/06/18 02:18:18;;;;;;;3.50;2.80;;;;;;;18.86;52.06;101147.34;5032468;28;20077;-80
2023/06/18 02:20:44;;;;;;;2.87;2.60;;;;;;;18.81;53.19;101144.03;5032566;28;20068;-79
2023/06/18 02:23:10;;;;;;;3.20;2.80;;;;;;;18.76;52.00;101138.16;5031982;28;20045;-80
2023/06/18 02:25:35;;;;;;;3.10;2.63;;;;;;;18.73;52.54;101143.53;5043866;28;20025;-79
2023/06/18 02:28:05;;;;;;;3.20;2.90;;;;;;;18.69;52.67;101140.22;5052862;28;20037;-80
2023/06/18 02:30:34;;;;;;;3.60;3.05;;;;;;;18.63;52.98;101141.34;5052154;28;20029;-80
2023/06/18 02:33:02;;;;;;;4.15;3.30;;;;;;;18.60;53.16;101148.50;5052708;28;20389;-80
2023/06/18 02:35:29;;;;;;;3.97;2.90;;;;;;;18.53;53.13;101140.03;5032839;28;20033;-80
2023/06/18 02:37:54;;;;;;;;;;;;;;;18.50;53.48;101145.41;5032307;28;20466;-80
2023/06/18 02:40:20;;;;;;;4.43;3.05;;;;;;;18.43;53.61;101141.38;5032679;28;19960;-80
2023/06/18 02:42:48;;;;;;;3.87;3.10;;;;;;;18.37;52.82;101130.19;5032202;28;20029;-79
2023/06/18 02:45:13;;;;;;;3.95;3.13;;;;;;;18.32;53.86;101126.91;5032267;28;20021;-80
2023/06/18 02:47:39;;;;;;;4.07;3.20;;;;;;;18.27;53.84;101128.88;5032854;28;20082;-79
2023/06/18 02:50:05;;;;;;;3.97;3.00;;;;;;;18.21;54.12;101130.00;5031754;28;20576;-79
2023/06/18 02:52:31;;;;;;;3.38;2.90;;;;;;;18.09;54.80;101121.78;5032438;28;20033;-80
2023/06/18 02:54:56;;;;;;;3.70;3.07;;;;;;;18.12;55.26;101127.78;5038534;28;20040;-80
2023/06/18 02:57:21;;;;;;;4.50;3.30;;;;;;;18.09;54.49;101127.06;5049816;28;20473;-79
2023/06/18 02:59:46;;;;;;;3.90;3.00;;;;;;;18.06;54.51;101122.78;5052594;28;20551;-79
2023/06/18 03:02:12;;;;;;;3.93;3.10;;;;;;;18.03;55.77;101117.66;5052256;28;20025;-80
2023/06/18 03:04:37;;;;;;;3.70;3.00;;;;;;;18.01;55.32;101133.47;5051650;28;20025;-80
2023/06/18 03:07:03;;;;;;;4.47;3.30;;;;;;;17.96;57.65;101124.91;5052478;28;20377;-79
2023/06/18 03:09:28;;;;;;;3.63;3.10;;;;;;;17.94;56.00;101134.63;5052178;28;20043;-79
2023/06/18 03:11:53;;;;;;;3.23;2.80;;;;;;;17.91;55.20;101132.97;5051602;28;20516;-80
2023/06/18 03:14:21;;;;;;;3.50;2.83;;;;;;;17.90;55.61;101138.31;5052272;28;20028;-80
2023/06/18 03:16:53;;;;;;;3.80;3.25;;;;;;;17.87;55.53;101136.63;5052550;28;20079;-79
2023/06/18 03:19:18;;;;;;;3.53;2.92;;;;;;;17.83;55.72;101124.56;5051091;28;20033;-79
2023/06/18 03:21:43;;;;;;;5.33;3.07;;;;;;;17.88;55.50;101140.97;5052419;28;20142;-79
2023/06/18 03:24:10;;;;;;;3.00;2.70;;;;;;;17.86;56.23;101142.81;5051696;28;20029;-79
2023/06/18 03:26:36;;;;;;;2.75;2.55;;;;;;;17.83;55.36;101140.31;5031955;28;20021;-80
2023/06/18 03:29:03;;;;;;;4.38;3.00;;;;;;;17.80;55.99;101135.19;5031173;28;20026;-80
2023/06/18 03:31:28;;;;;;;4.47;2.90;;;;;;;17.80;56.00;101137.81;5032290;28;20037;-80
2023/06/18 03:33:54;;;;;;;3.10;2.80;;;;;;;17.79;55.62;101136.09;5035170;28;20021;-80
2023/06/18 03:36:19;;;;;;;3.90;3.13;;;;;;;17.79;56.67;101138.72;5054495;28;20036;-80
2023/06/18 03:38:45;;;;;;;4.40;3.03;;;;;;;17.73;56.34;101136.38;5055709;28;20107;-80
2023/06/18 03:41:13;;;;;;;3.63;2.90;;;;;;;17.67;57.14;101126.97;5054913;28;20035;-80
2023/06/18 03:43:38;;;;;;;4.07;2.85;;;;;;;17.72;56.09;101138.13;5055917;28;20053;-80
2023/06/18 03:46:04;;;;;;;4.77;3.30;;;;;;;17.72;56.58;101142.53;5055554;28;20441;-80
2023/06/18 03:48:29;;;;;;;4.60;3.10;;;;;;;17.72;56.78;101145.16;5054931;28;20056;-80
2023/06/18 03:50:54;;;;;;;4.03;3.10;;;;;;;17.71;56.60;101141.66;5055950;28;20454;-80
2023/06/18 03:53:20;;;;;;;4.33;3.30;;;;;;;17.72;57.07;101146.00;5054576;28;20409;-80
2023/06/18 03:55:46;;;;;;;3.77;3.10;;;;;;;17.75;57.40;101145.00;5055892;28;20017;-80
2023/06/18 03:58:11;;;;;;;3.95;3.00;;;;;;;17.73;57.67;101145.09;5055152;28;20082;-80
2023/06/18 04:00:37;;;;;;;3.77;3.10;;;;;;;17.74;58.04;101149.41;5055034;28;20021;-80
2023/06/18 04:03:05;;;;;;;4.25;3.40;;;;;;;17.74;56.84;101157.28;5055532;28;20017;-80
2023/06/18 04:05:33;;;;;;;4.20;3.17;;;;;;;17.75;57.44;101155.50;5042600;28;20087;-80
2023/06/18 04:07:58;;;;;;;3.67;3.17;;;;;;;17.74;58.49;101152.03;5034610;28;20423;-80
2023/06/18 04:10:24;;;;;;;4.40;3.30;;;;;;;17.78;58.05;101163.28;5034743;28;20026;-79
2023/06/18 04:12:49;;;;;;;4.40;3.30;;;;;;;17.78;58.09;101157.19;5035402;28;20026;-80
2023/06/18 04:15:14;;;;;;;4.27;3.37;;;;;;;17.77;58.46;101158.09;5034134;28;20048;-80
2023/06/18 04:17:40;;;;;;;3.93;3.00;;;;;;;17.77;58.43;101163.34;5034870;28;20025;-80
2023/06/18 04:20:07;;;;;;;3.78;2.97;;;;;;;17.77;58.72;101166.81;5034771;28;20422;-80
2023/06/18 04:22:33;;;;;;;3.08;2.78;;;;;;;17.79;58.42;101158.91;5034251;28;20025;-80
2023/06/18 04:24:58;;;;;;;3.03;2.73;;;;;;;17.81;57.90;101162.28;5034696;28;20388;-80
2023/06/18 04:27:23;;;;;;;3.80;3.07;;;;;;;17.86;57.93;101170.84;5034860;28;20068;-80
2023/06/18 04:29:48;;;;;;;3.80;3.10;;;;;;;17.86;57.87;101162.97;5034348;28;20117;-80
2023/06/18 04:32:14;;;;;;;3.50;2.90;;;;;;;17.88;58.06;101155.88;5034460;28;20068;-80
2023/06/18 04:34:39;;;;;;;6.30;4.20;;;;;;;17.90;63.67;101164.56;5037070;28;20436;-80
2023/06/18 04:37:04;;;;;;;6.90;4.17;;;;;;;17.84;58.24;101146.41;5053808;28;20119;-80
2023/06/18 04:39:30;;;;;;;4.97;3.73;;;;;;;17.90;58.87;101157.53;5054565;28;20067;-80
2023/06/18 04:41:55;;;;;;;4.47;3.57;;;;;;;17.90;59.29;101152.28;5054182;28;20024;-80
2023/06/18 04:44:20;;;;;;;4.67;3.57;;;;;;;17.98;58.51;101162.50;5052976;28;20021;-80
2023/06/18 04:46:46;;;;;;;7.90;5.00;;;;;;;17.97;63.07;101155.53;5054728;28;20475;-80
2023/06/18 04:49:12;;;;;;;12.37;6.63;;;;;;;17.95;63.02;101153.88;5045768;28;20041;-80
2023/06/18 04:51:39;;;;;;;13.82;7.57;;;;;;;17.93;60.39;101150.44;5033711;28;20037;-80
2023/06/18 04:54:04;;;;;;;;;;;;;;;17.95;61.54;101157.34;5035030;28;20121;-80
2023/06/18 04:56:30;;;;;;;14.63;8.50;;;;;;;17.91;62.64;101139.97;5033356;28;19996;-79
2023/06/18 04:58:55;;;;;;;9.83;6.13;;;;;;;17.99;60.34;101150.22;5034294;28;20036;-80
2023/06/18 05:01:21;;;;;;;9.07;5.40;;;;;;;18.05;60.26;101145.56;5033794;28;20033;-79
2023/06/18 05:03:46;;;;;;;8.07;5.07;;;;;;;18.11;59.27;101147.06;5042890;28;20095;-80
2023/06/18 05:06:11;;;;;;;6.80;4.60;;;;;;;18.23;59.19;101148.34;5036331;28;20030;-80
2023/06/18 05:08:37;;;;;;;7.30;4.93;;;;;;;18.29;59.29;101148.06;5034053;28;20109;-80
2023/06/18 05:11:02;;;;;;;6.18;4.45;;;;;;;18.33;59.45;101144.41;5033139;28;20488;-80
2023/06/18 05:13:28;;;;;;;5.40;4.30;;;;;;;18.41;59.13;101151.09;5034008;28;20381;-80
2023/06/18 05:15:53;;;;;;;6.53;4.37;;;;;;;18.51;58.53;101155.00;5033925;28;20025;-80
2023/06/18 05:18:18;;;;;;;6.07;4.33;;;;;;;18.58;57.52;101158.22;5032700;28;20024;-80
2023/06/18 05:20:44;;;;;;;6.27;4.20;;;;;;;18.67;57.45;101160.44;5034063;28;20026;-79
2023/06/18 05:23:09;;;;;;;6.28;3.85;;;;;;;18.78;59.11;101165.25;5033466;28;20060;-80
2023/06/18 05:25:37;;;;;;;3.83;3.23;;;;;;;18.82;58.74;101164.16;5045921;28;20425;-80
2023/06/18 05:28:04;;;;;;;3.90;3.20;;;;;;;18.89;59.35;101162.97;5053752;28;20432;-80
2023/06/18 05:30:29;;;;;;;4.45;3.50;;;;;;;18.92;58.42;101162.81;5053275;28;20079;-79
2023/06/18 05:32:55;;;;;;;6.10;4.10;;;;;;;19.01;57.87;101172.13;5053030;28;20024;-80
2023/06/18 05:35:20;;;;;;;4.27;3.20;;;;;;;19.04;58.48;101163.22;5053081;28;20025;-80
2023/06/18 05:37:45;;;;;;;4.73;3.50;;;;;;;19.08;57.50;101164.78;5053558;28;20090;-80
2023/06/18 05:40:11;;;;;;;4.00;3.20;;;;;;;19.19;57.00;101167.78;5052269;28;20488;-79
2023/06/18 05:42:39;;;;;;;5.72;3.70;;;;;;;19.33;57.30;101177.66;5053398;28;20029;-80
2023/06/18 05:45:05;;;;;;;4.32;3.50;;;;;;;19.41;57.59;101169.41;5053259;28;20029;-80
2023/06/18 05:47:30;;;;;;;;;;;;;;;19.60;57.30;101178.13;5052188;28;20033;-80
2023/06/18 05:49:56;;;;;;;7.20;4.57;;;;;;;19.71;55.21;101177.63;5052930;28;19923;-80
2023/06/18 05:52:21;;;;;;;7.50;4.73;;;;;;;19.82;55.41;101171.81;5046436;28;20366;-80
2023/06/18 05:54:46;;;;;;;7.63;4.87;;;;;;;19.96;55.04;101176.44;5031815;28;20361;-80
2023/06/18 05:57:12;;;;;;;8.47;5.47;;;;;;;20.10;54.59;101181.03;5034293;28;20469;-79
2023/06/18 05:59:37;;;;;;;6.73;5.10;;;;;;;20.20;54.66;101166.47;5033501;28;20041;-79
2023/06/18 06:02:03;;;;;;;6.13;4.53;;;;;;;20.45;54.00;101173.09;5028240;28;20032;-80
2023/06/18 06:04:29;;;;;;;;;;;;;;;20.74;53.42;101173.38;5024403;28;20501;-80
2023/06/18 06:06:54;;;;;;;;;;;;;;;20.92;52.80;101174.19;5032481;28;19917;-80
2023/06/18 06:09:20;;;;;;;7.57;5.00;;;;;;;21.03;51.92;101173.63;5032081;28;19924;-81
2023/06/18 06:11:45;;;;;;;7.10;4.80;;;;;;;21.29;51.79;101181.88;5033157;28;20091;-80
2023/06/18 06:14:11;;;;;;;7.33;4.67;;;;;;;21.58;51.58;101179.41;5031809;28;20051;-80
2023/06/18 06:16:36;;;;;;;8.33;5.27;;;;;;;21.92;50.57;101166.97;5032944;28;20121;-81
2023/06/18 06:19:02;;;;;;;7.50;4.80;;;;;;;22.25;50.70;101178.25;5032901;28;20100;-80
2023/06/18 06:21:27;;;;;;;8.20;5.20;;;;;;;22.41;49.28;101184.38;5032012;28;20021;-80
2023/06/18 06:23:52;;;;;;;7.17;4.70;;;;;;;22.43;49.20;101186.91;5031330;28;20120;-80
2023/06/18 06:26:18;;;;;;;6.53;4.67;;;;;;;22.24;49.00;101169.50;5030947;28;20025;-80
2023/06/18 06:28:43;;;;;;;7.27;4.80;;;;;;;22.20;49.25;101184.69;5031931;28;20067;-81
2023/06/18 06:31:08;;;;;;;8.07;4.43;;;;;;;22.10;49.81;101188.81;5032226;28;20026;-81
2023/06/18 06:33:33;;;;;;;6.47;4.40;;;;;;;22.02;49.75;101185.75;5032851;28;20358;-88
2023/06/18 06:35:59;;;;;;;7.80;4.63;;;;;;;21.95;50.04;101187.91;5032470;28;20029;-83
2023/06/18 06:38:24;;;;;;;5.70;3.80;;;;;;;21.90;49.87;101189.97;5032518;28;20526;-80
2023/06/18 06:40:49;;;;;;;4.80;3.80;;;;;;;21.87;50.06;101198.06;5032516;28;20501;-80
2023/06/18 06:43:15;;;;;;;3.90;3.20;;;;;;;21.87;51.22;101217.41;5031680;28;20153;-80
2023/06/18 06:45:40;;;;;;;3.60;3.03;;;;;;;21.85;51.48;101247.50;5032516;28;20076;-81
2023/06/18 06:48:05;;;;;;;6.50;4.50;;;;;;;21.75;50.63;101249.81;5031893;28;20061;-81
2023/06/18 06:50:31;;;;;;;4.23;3.30;;;;;;;21.66;51.47;101245.06;5031591;28;20037;-82
2023/06/18 06:52:56;;;;;;;3.13;2.83;;;;;;;21.59;51.38;101244.53;5032396;28;20045;-76
2023/06/18 06:55:21;;;;;;;3.20;2.90;;;;;;;21.55;51.49;101241.19;5032254;28;20026;-80
2023/06/18 06:57:46;;;;;;;3.07;2.60;;;;;;;21.54;51.60;101238.63;5031159;28;20439;-80
2023/06/18 07:00:12;;;;;;;2.70;2.50;;;;;;;21.55;51.79;101233.28;5031723;28;20359;-80
2023/06/18 07:02:38;;;;;;;2.40;2.20;;;;;;;21.58;51.83;101233.06;5032712;28;20021;-89
2023/06/18 07:05:04;;;;;;;2.20;2.10;;;;;;;21.60;51.73;101233.88;5031674;28;20029;-81
2023/06/18 07:07:29;;;;;;;2.40;2.20;;;;;;;21.60;51.95;101230.41;5027144;28;20079;-81
2023/06/18 07:09:55;;;;;;;2.40;2.20;;;;;;;21.73;52.30;101241.97;5036092;28;20025;-81
2023/06/18 07:12:25;;;;;;;4.40;3.07;;;;;;;21.79;49.96;101232.84;5034882;28;20465;-82
2023/06/18 07:14:51;;;;;;;3.15;2.78;;;;;;;21.86;51.13;101239.50;5023947;28;20044;-81
2023/06/18 07:17:16;;;;;;;2.80;2.60;;;;;;;21.94;50.81;101239.06;5035171;28;20038;-82
2023/06/18 07:19:41;;;;;;;2.53;2.33;;;;;;;22.08;51.32;101242.69;5035849;28;20025;-81
2023/06/18 07:22:06;;;;;;;2.57;2.13;;;;;;;22.20;51.79;101249.91;5035737;28;20118;-81
2023/06/18 07:24:32;;;;;;;2.10;2.00;;;;;;;22.33;51.28;101247.41;5035506;28;20053;-81
2023/06/18 07:26:57;;;;;;;2.67;2.33;;;;;;;22.41;49.68;101237.25;5035657;28;20022;-81
2023/06/18 07:29:22;;;;;;;2.40;2.20;;;;;;;22.47;49.37;101231.59;5035367;28;20025;-81
2023/06/18 07:31:48;;;;;;;3.03;2.73;;;;;;;22.54;49.41;101236.53;5035165;28;20029;-80
2023/06/18 07:34:16;;;;;;;3.22;2.40;;;;;;;22.58;49.78;101235.38;5032731;28;20025;-81
2023/06/18 07:36:41;;;;;;;2.45;2.25;;;;;;;22.64;49.46;101235.88;5035423;28;20017;-80
2023/06/18 07:39:06;;;;;;;2.10;2.00;;;;;;;22.68;49.88;101236.56;5034692;28;20381;-80
2023/06/18 07:41:32;;;;;;;2.73;2.53;;;;;;;22.74;48.92;101238.81;5035720;28;20021;-81
2023/06/18 07:43:57;;;;;;;2.67;2.43;;;;;;;22.76;48.90;101236.94;5035117;28;20108;-81
2023/06/18 07:46:23;;;;;;;2.50;2.30;;;;;;;22.82;48.95;101235.72;5034946;28;20462;-81
2023/06/18 07:48:48;;;;;;;2.58;2.38;;;;;;;22.92;48.72;101234.22;5031357;28;20125;-80
2023/06/18 07:51:14;;;;;;;2.30;2.10;;;;;;;23.13;49.04;101231.19;5033676;28;20091;-81
2023/06/18 07:53:40;;;;;;;2.00;1.90;;;;;;;23.38;48.62;101227.03;5034475;28;20171;-80
2023/06/18 07:56:05;;;;;;;2.13;1.93;;;;;;;23.54;48.37;101224.25;5035248;28;20021;-80
2023/06/18 07:58:33;;;;;;;1.73;1.63;;;;;;;23.69;48.32;101228.56;5035396;28;20083;-80
2023/06/18 08:00:58;;;;;;;1.63;1.52;;;;;;;23.71;48.07;101209.91;5034968;28;20079;-80
2023/06/18 08:03:24;;;;;;;1.70;1.60;;;;;;;23.89;48.42;101231.69;5035032;28;20056;-80
2023/06/18 08:05:49;;;;;;;2.23;2.03;;;;;;;23.95;47.65;101226.00;5034416;28;20397;-80
2023/06/18 08:08:15;;;;;;;2.10;2.00;;;;;;;24.02;48.03;101231.75;5024568;28;20064;-80
2023/06/18 08:10:40;;;;;;;2.00;1.90;;;;;;;24.08;48.60;101233.16;5034836;28;20028;-81
2023/06/18 08:13:05;;;;;;;1.93;1.83;;;;;;;24.14;48.37;101225.66;5034548;28;20013;-80
2023/06/18 08:15:31;;;;;;;1.97;1.87;;;;;;;24.18;48.22;101219.19;5034427;28;20021;-81
2023/06/18 08:17:56;;;;;;;2.17;1.97;;;;;;;24.25;48.24;101226.72;5034340;28;20116;-80
2023/06/18 08:20:21;;;;;;;2.20;2.00;;;;;;;24.30;48.54;101220.16;5032161;28;20052;-80
2023/06/18 08:22:47;;;;;;;2.17;2.00;;;;;;;24.39;47.92;101221.34;5033761;28;20369;-80
2023/06/18 08:25:12;;;;;;;2.27;2.07;;;;;;;24.46;47.77;101219.13;5034119;28;20070;-81
2023/06/18 08:27:37;;;;;;;2.07;1.97;;;;;;;24.51;48.52;101214.34;5033062;28;20090;-80
2023/06/18 08:30:04;;;;;;;2.00;1.90;;;;;;;24.59;48.07;101213.81;5034129;28;20029;-80
2023/06/18 08:32:29;;;;;;;1.77;1.67;;;;;;;24.66;48.02;101220.38;5034357;28;20083;-80
2023/06/18 08:34:55;;;;;;;1.80;1.70;;;;;;;24.70;47.11;101206.00;5034124;28;20072;-80
2023/06/18 08:37:20;;;;;;;2.77;1.77;;;;;;;24.72;47.45;101205.88;5034146;28;20426;-80
2023/06/18 08:39:45;;;;;;;1.87;1.77;;;;;;;24.77;48.18;101203.75;5034481;28;20084;-80
2023/06/18 08:42:17;;;;;;;1.30;1.30;;;;;;;24.77;47.98;101209.06;5032555;28;20018;-80
2023/06/18 08:44:45;;;;;;;2.08;1.90;;;;;;;24.76;47.51;101207.38;5034651;28;20103;-80
2023/06/18 08:47:10;;;;;;;1.95;1.85;;;;;;;24.71;47.89;101212.16;5033996;28;20494;-81
2023/06/18 08:49:40;;;;;;;2.10;2.00;;;;;;;24.67;48.07;101204.38;5032950;28;20053;-80
2023/06/18 08:52:08;;;;;;;2.30;2.10;;;;;;;24.67;48.91;101216.78;5033357;28;20108;-80
2023/06/18 08:54:35;;;;;;;2.30;2.08;;;;;;;24.65;48.87;101213.41;5034162;28;20115;-79
2023/06/18 08:57:09;;;;;;;2.13;2.03;;;;;;;24.59;48.26;101214.69;5033432;28;20355;-80
2023/06/18 08:59:36;;;;;;;2.40;2.20;;;;;;;24.54;49.13;101215.94;5034359;28;20083;-80
2023/06/18 09:02:04;;;;;;;2.38;2.17;;;;;;;24.52;49.06;101208.94;5034320;28;20040;-80
2023/06/18 09:04:31;;;;;;;2.22;2.03;;;;;;;24.49;48.96;101209.16;5031919;28;20440;-80
2023/06/18 09:06:57;;;;;;;2.33;2.13;;;;;;;24.42;49.35;101207.00;5024247;28;20544;-80
2023/06/18 09:09:23;;;;;;;2.15;2.05;;;;;;;24.40;49.54;101208.91;5033331;28;20577;-80
2023/06/18 09:11:49;;;;;;;1.92;1.83;;;;;;;24.36;49.47;101213.59;5033497;28;20108;-80
2023/06/18 09:14:17;;;;;;;2.00;1.90;;;;;;;24.29;49.35;101215.81;5033473;28;20035;-80
2023/06/18 09:16:42;;;;;;;2.30;2.10;;;;;;;24.29;49.26;101220.28;5033342;28;20031;-80
2023/06/18 09:19:08;;;;;;;2.00;1.90;;;;;;;24.30;49.68;101224.63;5032844;28;20100;-80
2023/06/18 09:21:42;;;;;;;2.30;2.10;;;;;;;24.30;50.95;101225.47;5033527;28;20032;-80
2023/06/18 09:24:08;;;;;;;1.95;1.85;;;;;;;24.30;49.88;101221.97;5032682;28;20112;-81
2023/06/18 09:26:34;;;;;;;;;;;;;;;24.32;50.41;101226.22;5034066;28;20028;-80
2023/06/18 09:29:07;;;;;;;1.92;1.83;;;;;;;24.33;50.46;101227.06;5031810;28;19909;-80
2023/06/18 09:31:34;;;;;;;2.45;2.00;;;;;;;24.36;51.00;101222.41;5031932;28;20385;-81
2023/06/18 09:34:14;;;;;;;2.30;2.08;;;;;;;24.40;50.52;101225.69;5033006;28;20018;-81
2023/06/18 09:36:41;;;;;;;2.10;2.00;;;;;;;24.43;50.71;101225.47;5033502;28;20053;-80
2023/06/18 09:39:23;;;;;;;2.20;2.00;;;;;;;24.42;50.97;101215.84;5032387;28;20064;-81
2023/06/18 09:41:51;;;;;;;2.08;1.98;;;;;;;24.44;51.38;101223.69;5033085;28;20489;-81
2023/06/18 09:44:17;;;;;;;2.10;2.00;;;;;;;24.40;51.47;101207.13;5033077;28;20030;-80
2023/06/18 09:46:56;;;;;;;2.00;1.90;;;;;;;24.42;51.23;101210.53;5032436;28;20029;-81
2023/06/18 09:49:23;;;;;;;2.20;2.10;;;;;;;24.40;51.63;101222.19;5031871;28;20041;-81
2023/06/18 09:51:52;;;;;;;;;;;;;;;24.40;51.77;101220.41;5035217;28;20035;-81
2023/06/18 09:54:17;;;;;;;2.75;2.55;;;;;;;24.39;52.35;101217.81;5032832;28;19917;-81
2023/06/18 09:56:59;;;;;;;2.45;2.25;;;;;;;24.35;51.12;101223.38;5040829;28;20037;-80
2023/06/18 09:59:26;;;;;;;2.70;2.50;;;;;;;24.32;52.17;101215.59;5032940;28;20059;-81
2023/06/18 10:01:51;;;;;;;;;;;;;;;24.34;53.28;101224.31;5028912;28;20053;-81
2023/06/18 10:04:17;;;;;;;2.60;2.40;;;;;;;24.31;52.60;101219.22;5032610;28;19940;-81
2023/06/18 10:07:02;;;;;;;2.58;2.38;;;;;;;24.28;52.50;101218.56;5032493;28;20100;-81
2023/06/18 10:09:39;;;;;;;2.70;2.50;;;;;;;24.21;54.06;101213.66;5032686;28;20036;-80
2023/06/18 10:12:05;;;;;;;2.88;2.30;;;;;;;24.15;55.27;101213.25;5032821;28;20029;-80
2023/06/18 10:14:31;;;;;;;;;;;;;;;24.11;55.26;101209.94;5032503;28;20032;-79
2023/06/18 10:17:02;;;;;;;2.60;2.40;;;;;;;24.07;55.83;101200.50;5033100;28;19913;-80
2023/06/18 10:19:33;;;;;;;2.78;2.50;;;;;;;24.05;57.90;101203.25;5032265;28;20060;-80
2023/06/18 10:22:03;;;;;;;3.03;2.63;;;;;;;24.02;55.67;101197.31;5031475;28;20466;-79
2023/06/18 10:24:34;;;;;;;3.22;2.90;;;;;;;23.95;56.79;101180.94;5032092;28;20474;-79
2023/06/18 10:27:03;;;;;;;2.95;2.75;;;;;;;23.94;56.30;101186.34;5031789;28;20021;-79
2023/06/18 10:29:29;;;;;;;3.20;2.75;;;;;;;23.96;57.06;101181.81;5031775;28;20044;-79
2023/06/18 10:31:55;;;;;;;2.85;2.65;;;;;;;23.98;57.16;101171.97;5032591;28;20033;-79
2023/06/18 10:34:21;;;;;;;4.05;3.63;;;;;;;23.98;56.72;101171.97;5031722;28;20032;-79
2023/06/18 10:36:47;;;;;;;8.77;5.20;;;;;;;23.84;55.67;101167.53;5032598;28;20033;-81
2023/06/18 10:39:12;;;;;;;7.05;5.50;;;;;;;23.74;54.92;101164.66;5032390;28;20026;-83
2023/06/18 10:41:39;;;;;;;7.57;5.22;;;;;;;23.74;56.83;101160.19;5031771;28;20029;-79
2023/06/18 10:44:04;;;;;;;;;;;;;;;23.76;55.64;101165.38;5033176;28;20021;-79
2023/06/18 10:46:33;;;;;;;10.17;5.97;;;;;;;23.72;55.45;101162.09;5032480;28;20258;-79
2023/06/18 10:49:19;;;;;;;7.70;5.80;;;;;;;23.67;55.42;101153.63;5031618;28;20365;-79
2023/06/18 10:52:12;;;;;;;8.93;5.85;;;;;;;23.73;53.70;101153.19;5033496;28;20476;-79
2023/06/18 10:54:38;;;;;;;8.38;5.50;;;;;;;23.82;56.69;101157.03;5032051;28;20084;-79
2023/06/18 10:57:03;;;;;;;6.35;4.75;;;;;;;23.99;56.37;101155.94;5031982;28;20022;-79
2023/06/18 10:59:49;;;;;;;6.18;4.45;;;;;;;24.27;55.56;101166.47;5032488;28;20025;-79
2023/06/18 11:02:15;;;;;;;;;;;;;;;24.45;55.75;101156.41;5031777;28;20409;-79
2023/06/18 11:04:41;;;;;;;4.95;3.88;;;;;;;24.59;54.38;101172.22;5032153;28;20300;-80
2023/06/18 11:07:23;;;;;;;5.53;4.30;;;;;;;24.73;54.12;101165.97;5032038;28;20112;-79
2023/06/18 11:10:00;;;;;;;5.07;4.03;;;;;;;24.86;53.38;101167.78;5031535;28;20541;-79
2023/06/18 11:12:28;;;;;;;4.78;3.80;;;;;;;24.91;53.18;101165.63;5031964;28;20037;-79
2023/06/18 11:15:16;;;;;;;6.68;4.75;;;;;;;24.92;53.37;101160.22;5032107;28;20024;-80
2023/06/18 11:18:01;;;;;;;6.18;4.60;;;;;;;24.95;52.13;101151.19;5037230;28;20025;-79
2023/06/18 11:20:38;;;;;;;11.18;6.90;;;;;;;24.88;53.63;101144.63;5047533;28;20037;-79
2023/06/18 11:23:04;;;;;;;7.18;5.50;;;;;;;24.74;53.19;101138.50;5032048;28;20036;-79
2023/06/18 11:25:30;;;;;;;6.68;5.03;;;;;;;24.76;53.57;101141.88;5030933;28;20382;-80